Time;durP1;ratioP1;P1;durP2;ratioP2;P2;SDS_P1;SDS_P2;PMS_P1;PMS_P2;Temp;Humidity;BMP_temperature;BMP_pressure;BME280_temperature;BME280_humidity;BME280_pressure;Samples;Min_cycle;Max_cycle;Signal;HPM_P1;HPM_P2
2021/07/10 00:01:08;;;;;;;8.97;3.50;;;;;;;14.18;100.00;100835.50;5116633;28;20181;-72
2021/07/10 00:03:33;;;;;;;10.67;3.97;;;;;;;14.17;100.00;100825.75;5116603;28;20215;-73
2021/07/10 00:05:59;;;;;;;8.20;3.67;;;;;;;14.12;100.00;100843.94;5099637;28;20177;-74
2021/07/10 00:08:24;;;;;;;14.17;3.93;;;;;;;14.11;100.00;100848.47;5098991;28;20182;-74
2021/07/10 00:10:49;;;;;;;11.37;3.03;;;;;;;14.11;100.00;100847.59;5117226;28;20287;-75
2021/07/10 00:13:15;;;;;;;5.57;2.93;;;;;;;14.08;100.00;100845.97;5117455;28;20205;-75
2021/07/10 00:15:40;;;;;;;9.10;3.00;;;;;;;14.04;100.00;100874.84;5116996;28;20174;-74
2021/07/10 00:18:05;;;;;;;6.57;3.37;;;;;;;13.98;100.00;100839.53;5099450;28;20169;-74
2021/07/10 00:20:31;;;;;;;6.87;3.03;;;;;;;13.94;100.00;100848.75;5099665;28;20169;-75
2021/07/10 00:22:56;;;;;;;7.37;3.20;;;;;;;13.95;100.00;100821.81;5099115;28;20198;-75
2021/07/10 00:25:21;;;;;;;27.47;3.70;;;;;;;13.88;100.00;100815.13;5117446;28;20173;-75
2021/07/10 00:27:48;;;;;;;5.30;3.13;;;;;;;13.90;100.00;100806.97;5116827;28;20203;-75
2021/07/10 00:30:16;;;;;;;7.70;2.93;;;;;;;13.87;100.00;100813.41;5098344;28;20177;-75
2021/07/10 00:32:41;;;;;;;11.37;3.03;;;;;;;13.84;100.00;100805.56;5081088;28;20296;-75
2021/07/10 00:35:07;;;;;;;7.13;2.63;;;;;;;13.81;100.00;100797.75;5116417;28;20264;-75
2021/07/10 00:37:33;;;;;;;9.60;2.77;;;;;;;13.82;100.00;100804.81;5097844;28;20659;-75
2021/07/10 00:39:59;;;;;;;4.10;2.67;;;;;;;13.79;100.00;100796.97;5097836;28;20256;-74
2021/07/10 00:42:24;;;;;;;9.80;2.40;;;;;;;13.79;100.00;100805.03;5097514;28;20240;-75
2021/07/10 00:44:49;;;;;;;9.87;2.70;;;;;;;13.77;100.00;100812.31;5116091;28;20180;-75
2021/07/10 00:47:15;;;;;;;12.90;3.53;;;;;;;13.79;100.00;100810.41;5097555;28;20216;-73
2021/07/10 00:49:40;;;;;;;12.13;2.90;;;;;;;13.86;100.00;100800.97;5097391;28;20170;-73
2021/07/10 00:52:06;;;;;;;42.07;3.73;;;;;;;13.88;100.00;100804.41;5114840;28;20205;-74
2021/07/10 00:54:32;;;;;;;5.23;2.90;;;;;;;13.95;100.00;100808.38;5097424;28;20193;-75
2021/07/10 00:56:58;;;;;;;3.77;2.73;;;;;;;13.97;100.00;100888.78;5097335;28;20181;-75
2021/07/10 00:59:31;;;;;;;3.67;2.43;;;;;;;13.96;100.00;100854.88;5080579;28;20212;-76
2021/07/10 01:01:56;;;;;;;5.17;2.40;;;;;;;14.04;100.00;100847.16;5097536;28;20239;-76
2021/07/10 01:04:22;;;;;;;5.70;2.50;;;;;;;14.00;100.00;100835.78;5097629;28;20177;-76
2021/07/10 01:06:47;;;;;;;4.30;2.20;;;;;;;14.04;100.00;100828.38;5080138;28;20227;-76
2021/07/10 01:09:13;;;;;;;8.83;2.63;;;;;;;14.07;100.00;100834.38;5115496;28;20184;-75
2021/07/10 01:11:39;;;;;;;15.60;2.57;;;;;;;14.07;100.00;100826.34;5115340;28;20197;-75
2021/07/10 01:14:06;;;;;;;3.13;2.17;;;;;;;14.09;100.00;100828.91;5097143;28;20627;-73
2021/07/10 01:16:31;;;;;;;4.67;2.00;;;;;;;14.06;100.00;100839.88;5097137;28;20178;-75
2021/07/10 01:18:56;;;;;;;5.57;2.47;;;;;;;14.06;100.00;100824.63;5097500;28;20174;-74
2021/07/10 01:21:21;;;;;;;4.43;2.57;;;;;;;14.09;100.00;100827.09;5115645;28;20290;-74
2021/07/10 01:23:48;;;;;;;3.07;2.20;;;;;;;14.15;100.00;100822.31;5096989;28;20253;-74
2021/07/10 01:26:14;;;;;;;7.63;2.10;;;;;;;14.16;100.00;100824.88;5114935;28;20273;-74
2021/07/10 01:28:39;;;;;;;4.90;2.10;;;;;;;14.11;100.00;100820.75;5097100;28;20291;-75
2021/07/10 01:31:05;;;;;;;3.60;2.00;;;;;;;14.16;100.00;100827.56;5096985;28;20541;-75
2021/07/10 01:33:30;;;;;;;2.20;1.97;;;;;;;14.13;100.00;100824.22;5096722;28;20213;-75
2021/07/10 01:35:56;;;;;;;4.57;2.77;;;;;;;14.16;100.00;100824.03;5096922;28;20215;-75
2021/07/10 01:38:21;;;;;;;4.00;2.20;;;;;;;14.14;100.00;100821.44;5115230;28;20173;-74
2021/07/10 01:40:46;;;;;;;7.60;2.80;;;;;;;14.17;100.00;100837.34;5115212;28;20196;-74
2021/07/10 01:43:12;;;;;;;3.20;2.23;;;;;;;14.20;100.00;100822.84;5096830;28;20194;-74
2021/07/10 01:45:39;;;;;;;2.30;2.10;;;;;;;14.20;100.00;100831.75;5115232;28;20576;-75
2021/07/10 01:48:06;;;;;;;3.07;2.67;;;;;;;14.17;100.00;101040.47;5115067;28;20192;-74
2021/07/10 01:50:31;;;;;;;13.47;2.70;;;;;;;14.17;100.00;100879.41;5096395;28;20185;-73
2021/07/10 01:52:57;;;;;;;2.43;2.23;;;;;;;14.21;100.00;100846.91;5096179;28;20201;-73
2021/07/10 01:55:23;;;;;;;3.63;2.63;;;;;;;14.21;100.00;100844.22;5096426;28;20174;-73
2021/07/10 01:57:50;;;;;;;13.03;2.50;;;;;;;14.23;100.00;100850.34;5079232;28;20174;-75
2021/07/10 02:00:20;;;;;;;11.00;2.50;;;;;;;14.23;100.00;100857.53;5096146;28;20186;-74
2021/07/10 02:02:46;;;;;;;16.93;2.20;;;;;;;14.21;100.00;100856.78;5078817;28;20680;-74
2021/07/10 02:05:12;;;;;;;5.60;2.70;;;;;;;14.25;100.00;100867.19;5096187;28;20244;-74
2021/07/10 02:07:37;;;;;;;4.90;2.30;;;;;;;14.24;100.00;100864.63;5114339;28;20701;-75
2021/07/10 02:10:07;;;;;;;6.33;2.07;;;;;;;14.22;100.00;100858.50;5096022;28;20177;-75
2021/07/10 02:12:33;;;;;;;2.23;1.80;;;;;;;14.23;100.00;100868.28;5095802;28;20205;-75
2021/07/10 02:14:58;;;;;;;8.80;1.90;;;;;;;14.17;100.00;100855.25;5096394;28;20185;-75
2021/07/10 02:17:23;;;;;;;14.67;2.17;;;;;;;14.15;100.00;100870.63;5095918;28;20629;-75
2021/07/10 02:19:49;;;;;;;2.20;2.00;;;;;;;14.13;100.00;100864.50;5114758;28;20174;-75
2021/07/10 02:22:16;;;;;;;2.50;2.30;;;;;;;14.09;100.00;100853.94;5114143;28;20192;-75
2021/07/10 02:24:41;;;;;;;2.93;2.37;;;;;;;14.14;100.00;100901.97;5096371;28;20177;-76
2021/07/10 02:27:06;;;;;;;5.03;2.60;;;;;;;14.15;100.00;100876.84;5096016;28;20177;-76
2021/07/10 02:29:32;;;;;;;5.57;2.30;;;;;;;14.15;100.00;100865.25;5079379;28;20177;-75
2021/07/10 02:31:57;;;;;;;4.27;2.10;;;;;;;14.16;100.00;100875.03;5095516;28;20573;-76
2021/07/10 02:34:22;;;;;;;3.77;2.03;;;;;;;14.17;100.00;100860.63;5114049;28;20553;-77
2021/07/10 02:36:48;;;;;;;3.07;1.77;;;;;;;14.19;100.00;100867.63;5078669;28;20173;-77
2021/07/10 02:39:13;;;;;;;5.37;2.13;;;;;;;14.20;100.00;100857.75;5078640;28;20657;-76
2021/07/10 02:41:38;;;;;;;6.80;2.40;;;;;;;14.22;100.00;100866.56;5113845;28;20565;-75
2021/07/10 02:44:05;;;;;;;2.80;1.80;;;;;;;14.20;100.00;100861.28;5095957;28;20174;-75
2021/07/10 02:46:30;;;;;;;5.30;1.77;;;;;;;14.17;100.00;100848.06;5113816;28;20177;-75
2021/07/10 02:48:58;;;;;;;2.97;1.90;;;;;;;14.13;100.00;100869.84;5078476;28;20176;-75
2021/07/10 02:51:24;;;;;;;5.40;2.30;;;;;;;14.13;100.00;100884.13;5095930;28;20189;-75
2021/07/10 02:53:49;;;;;;;2.30;2.10;;;;;;;14.07;100.00;100871.09;5113538;28;20644;-76
2021/07/10 02:56:14;;;;;;;8.93;3.40;;;;;;;14.08;100.00;100862.94;5113594;28;20661;-75
2021/07/10 02:58:40;;;;;;;2.63;2.40;;;;;;;14.07;100.00;100884.53;5095351;28;20178;-75
2021/07/10 03:01:05;;;;;;;2.43;2.23;;;;;;;14.02;100.00;100879.47;5095883;28;20192;-76
2021/07/10 03:03:30;;;;;;;3.77;2.33;;;;;;;13.98;100.00;100869.91;5078432;28;20637;-75
2021/07/10 03:05:55;;;;;;;8.97;3.10;;;;;;;13.99;100.00;100878.81;5095346;28;20170;-75
2021/07/10 03:08:21;;;;;;;3.20;2.43;;;;;;;14.00;100.00;100872.47;5113576;28;20173;-75
2021/07/10 03:10:47;;;;;;;13.77;2.90;;;;;;;13.92;100.00;100861.41;5113785;28;20166;-75
2021/07/10 03:13:14;;;;;;;6.80;3.37;;;;;;;13.88;100.00;100859.88;5114081;28;20193;-75
2021/07/10 03:15:39;;;;;;;2.73;2.43;;;;;;;13.76;100.00;100849.00;5118381;28;20173;-75
2021/07/10 03:18:05;;;;;;;7.30;2.90;;;;;;;13.67;100.00;100867.50;5118887;28;20180;-75
2021/07/10 03:20:30;;;;;;;6.63;3.17;;;;;;;13.62;100.00;100856.22;5118594;28;20205;-75
2021/07/10 03:22:55;;;;;;;7.67;4.10;;;;;;;13.58;100.00;100882.38;5082648;28;20254;-75
2021/07/10 03:25:21;;;;;;;10.40;4.20;;;;;;;13.52;100.00;100860.47;5117929;28;20237;-74
2021/07/10 03:27:48;;;;;;;5.27;3.80;;;;;;;13.45;100.00;100863.56;5099879;28;20256;-75
2021/07/10 03:30:16;;;;;;;7.43;4.93;;;;;;;13.41;100.00;100859.34;5099642;28;20635;-75
2021/07/10 03:32:41;;;;;;;5.90;4.13;;;;;;;13.39;100.00;100868.44;5098937;28;20220;-76
2021/07/10 03:35:11;;;;;;;4.53;3.87;;;;;;;13.39;100.00;100866.63;5117734;28;20538;-75
2021/07/10 03:37:37;;;;;;;6.13;3.87;;;;;;;13.40;100.00;100873.72;5083306;28;20538;-75
2021/07/10 03:40:04;;;;;;;8.20;3.73;;;;;;;13.40;100.00;100879.06;5099477;28;20177;-74
2021/07/10 03:42:30;;;;;;;8.63;4.60;;;;;;;13.42;100.00;100862.88;5081936;28;20296;-76
2021/07/10 03:44:55;;;;;;;5.20;4.17;;;;;;;13.41;100.00;100869.22;5118130;28;20189;-75
2021/07/10 03:47:20;;;;;;;10.87;4.50;;;;;;;13.46;100.00;100867.09;5117510;28;20173;-75
2021/07/10 03:49:46;;;;;;;10.57;5.20;;;;;;;13.45;100.00;100871.59;5098798;28;20177;-74
2021/07/10 03:52:11;;;;;;;7.90;5.20;;;;;;;13.50;100.00;100867.75;5117134;28;20201;-76
2021/07/10 03:54:36;;;;;;;7.70;5.20;;;;;;;13.54;100.00;100866.59;5098825;28;20265;-76
2021/07/10 03:57:02;;;;;;;4.97;4.43;;;;;;;13.59;100.00;100859.09;5099084;28;20200;-76
2021/07/10 03:59:27;;;;;;;8.93;4.77;;;;;;;13.62;100.00;100861.59;5098746;28;20181;-76
2021/07/10 04:01:53;;;;;;;7.30;4.43;;;;;;;13.66;100.00;100863.97;5098783;28;20228;-75
2021/07/10 04:04:18;;;;;;;6.93;4.33;;;;;;;13.73;100.00;100875.16;5099060;28;20188;-75
2021/07/10 04:06:43;;;;;;;7.13;4.97;;;;;;;13.79;100.00;100873.91;5098794;28;20225;-75
2021/07/10 04:09:09;;;;;;;8.10;5.10;;;;;;;13.82;100.00;100873.72;5098462;28;20181;-75
2021/07/10 04:11:34;;;;;;;6.40;4.63;;;;;;;13.86;100.00;100868.03;5098167;28;20665;-74
2021/07/10 04:14:00;;;;;;;6.10;4.90;;;;;;;13.92;100.00;100883.72;5098493;28;20633;-75
2021/07/10 04:16:25;;;;;;;6.07;5.03;;;;;;;13.96;100.00;100892.44;5081524;28;20234;-75
2021/07/10 04:18:50;;;;;;;9.30;6.77;;;;;;;14.00;100.00;100884.06;5116598;28;20541;-76
2021/07/10 04:21:16;;;;;;;7.73;5.53;;;;;;;14.06;100.00;100910.50;5098414;28;20176;-76
2021/07/10 04:23:41;;;;;;;7.60;5.30;;;;;;;14.09;100.00;100878.09;5098203;28;20194;-76
2021/07/10 04:26:06;;;;;;;7.23;5.17;;;;;;;14.13;100.00;100889.50;5115528;28;20180;-76
2021/07/10 04:28:32;;;;;;;7.10;5.03;;;;;;;14.17;100.00;100900.91;5098469;28;20185;-75
2021/07/10 04:30:57;;;;;;;7.37;6.00;;;;;;;14.16;100.00;100900.03;5116581;28;20204;-74
2021/07/10 04:33:23;;;;;;;6.27;5.10;;;;;;;14.17;100.00;100890.16;5104432;22;20226;-67
2021/07/10 04:35:48;;;;;;;5.80;5.20;;;;;;;14.16;100.00;100899.19;5060700;28;20321;-66
2021/07/10 04:38:15;;;;;;;7.13;5.47;;;;;;;14.15;100.00;100894.78;5095898;28;20630;-67
2021/07/10 04:40:40;;;;;;;6.13;5.07;;;;;;;14.15;100.00;100874.16;5077842;28;20546;-66
2021/07/10 04:43:06;;;;;;;6.87;5.53;;;;;;;14.14;100.00;100901.09;5095243;28;20212;-66
2021/07/10 04:45:31;;;;;;;6.90;5.30;;;;;;;14.15;100.00;100897.47;5095950;28;20182;-67
2021/07/10 04:47:56;;;;;;;12.90;6.43;;;;;;;14.13;100.00;100900.25;5095190;28;20204;-67
2021/07/10 04:50:22;;;;;;;16.63;7.27;;;;;;;14.10;100.00;100911.16;5095466;28;20170;-67
2021/07/10 04:52:47;;;;;;;11.70;5.90;;;;;;;14.11;100.00;100907.50;5077581;28;20194;-67
2021/07/10 04:55:16;;;;;;;6.90;5.20;;;;;;;14.12;100.00;100887.75;5095235;28;20565;-68
2021/07/10 04:57:42;;;;;;;6.57;5.23;;;;;;;14.14;100.00;100911.84;5077114;28;20192;-67
2021/07/10 05:00:08;;;;;;;6.10;5.23;;;;;;;14.12;100.00;100916.41;5077670;28;20182;-67
2021/07/10 05:02:34;;;;;;;6.80;4.87;;;;;;;14.11;100.00;100907.50;5095267;28;20251;-67
2021/07/10 05:04:59;;;;;;;5.50;4.83;;;;;;;14.09;100.00;100918.34;5094916;28;20178;-67
2021/07/10 05:07:24;;;;;;;8.43;5.50;;;;;;;14.09;100.00;100909.44;5094888;28;20174;-67
2021/07/10 05:09:50;;;;;;;8.03;6.23;;;;;;;14.06;100.00;100925.75;5076904;28;20178;-67
2021/07/10 05:12:18;;;;;;;8.50;6.00;;;;;;;14.04;100.00;100955.38;5094712;28;20182;-67
2021/07/10 05:14:43;;;;;;;7.83;5.67;;;;;;;14.05;100.00;100935.63;5076663;28;20550;-67
2021/07/10 05:17:08;;;;;;;8.93;5.60;;;;;;;14.08;100.00;100959.56;5094768;28;20181;-66
2021/07/10 05:19:34;;;;;;;8.87;5.40;;;;;;;14.09;100.00;100947.00;5094802;28;20592;-67
2021/07/10 05:21:59;;;;;;;9.10;5.60;;;;;;;14.11;100.00;100953.13;5094584;28;20571;-67
2021/07/10 05:24:24;;;;;;;5.80;5.20;;;;;;;14.15;100.00;100957.38;5094662;28;20170;-67
2021/07/10 05:26:50;;;;;;;7.83;5.40;;;;;;;14.15;100.00;100952.00;5095012;28;20181;-67
2021/07/10 05:29:16;;;;;;;9.93;5.37;;;;;;;14.17;100.00;100959.94;5095327;28;20202;-67
2021/07/10 05:31:41;;;;;;;6.63;5.80;;;;;;;14.18;100.00;100964.34;5094657;28;20235;-68
2021/07/10 05:34:07;;;;;;;8.87;6.10;;;;;;;14.19;100.00;100958.88;5076882;28;20158;-67
2021/07/10 05:36:32;;;;;;;6.33;5.20;;;;;;;14.22;100.00;100969.41;5094362;28;20202;-67
2021/07/10 05:38:57;;;;;;;9.43;5.63;;;;;;;14.27;100.00;100972.66;5094657;28;20178;-67
2021/07/10 05:41:22;;;;;;;8.27;6.43;;;;;;;14.28;100.00;100971.69;5076482;28;20267;-67
2021/07/10 05:43:48;;;;;;;10.50;6.93;;;;;;;14.31;100.00;100981.38;5076346;28;20585;-66
2021/07/10 05:46:13;;;;;;;6.17;5.40;;;;;;;14.35;100.00;100978.38;5094668;28;20252;-67
2021/07/10 05:48:39;;;;;;;9.17;5.60;;;;;;;14.34;100.00;100973.09;5094338;28;20166;-67
2021/07/10 05:51:04;;;;;;;7.33;4.87;;;;;;;14.38;100.00;100986.22;5094425;28;20174;-68
2021/07/10 05:53:29;;;;;;;8.93;6.03;;;;;;;14.40;100.00;100978.94;5075934;28;20197;-67
2021/07/10 05:55:54;;;;;;;6.40;5.63;;;;;;;14.42;100.00;100973.44;5075948;28;20178;-67
2021/07/10 05:58:20;;;;;;;7.13;5.87;;;;;;;14.44;100.00;100984.97;5076052;28;20171;-67
2021/07/10 06:00:45;;;;;;;8.67;5.50;;;;;;;14.46;100.00;100985.75;5094428;28;20185;-68
2021/07/10 06:03:10;;;;;;;9.30;6.60;;;;;;;14.46;100.00;100992.94;5094197;28;20222;-66
2021/07/10 06:05:37;;;;;;;9.63;6.33;;;;;;;14.46;100.00;100993.78;5076531;28;20679;-67
2021/07/10 06:08:03;;;;;;;9.13;6.43;;;;;;;14.50;100.00;100997.16;5075672;28;20261;-67
2021/07/10 06:10:28;;;;;;;9.90;6.53;;;;;;;14.50;100.00;100987.28;5094482;28;20177;-67
2021/07/10 06:12:53;;;;;;;9.67;7.20;;;;;;;14.52;100.00;100988.03;5094094;28;20202;-68
2021/07/10 06:15:18;;;;;;;6.70;5.67;;;;;;;14.55;100.00;100993.22;5094219;28;20649;-68
2021/07/10 06:17:44;;;;;;;7.67;6.60;;;;;;;14.56;100.00;100989.56;5094098;28;20181;-67
2021/07/10 06:20:15;;;;;;;7.87;6.87;;;;;;;14.57;100.00;100988.59;5075793;28;20183;-67
2021/07/10 06:22:41;;;;;;;7.73;6.50;;;;;;;14.63;100.00;100996.22;5076414;28;20202;-67
2021/07/10 06:25:08;;;;;;;11.17;7.47;;;;;;;14.70;100.00;101002.06;5095381;28;20182;-67
2021/07/10 06:27:33;;;;;;;9.33;7.20;;;;;;;14.67;100.00;101004.94;5076202;28;20186;-67
2021/07/10 06:29:59;;;;;;;7.47;6.10;;;;;;;14.69;100.00;101001.19;5075856;28;20179;-67
2021/07/10 06:32:24;;;;;;;6.43;5.83;;;;;;;14.69;100.00;101001.19;5093561;28;20209;-67
2021/07/10 06:34:49;;;;;;;7.43;6.73;;;;;;;14.73;100.00;101007.22;5093910;28;20182;-67
2021/07/10 06:37:15;;;;;;;7.57;6.87;;;;;;;14.79;100.00;101092.78;5075821;28;20174;-67
2021/07/10 06:39:40;;;;;;;7.80;6.57;;;;;;;14.83;100.00;100999.38;5093582;28;20179;-68
2021/07/10 06:42:05;;;;;;;8.33;6.27;;;;;;;14.84;100.00;101003.78;5093074;28;20670;-67
2021/07/10 06:44:31;;;;;;;8.57;6.53;;;;;;;14.85;100.00;101005.50;5093633;28;20182;-69
2021/07/10 06:46:56;;;;;;;8.93;6.53;;;;;;;14.85;100.00;101002.81;5075436;28;20672;-68
2021/07/10 06:49:21;;;;;;;7.63;5.67;;;;;;;14.89;100.00;101004.38;5057860;28;20247;-68
2021/07/10 06:51:47;;;;;;;7.77;6.20;;;;;;;14.88;100.00;101006.19;5075589;28;20206;-68
2021/07/10 06:54:13;;;;;;;7.30;6.37;;;;;;;14.94;100.00;101004.91;5075378;28;20182;-68
2021/07/10 06:56:38;;;;;;;10.07;7.30;;;;;;;14.99;100.00;101009.00;5075329;28;20205;-68
2021/07/10 06:59:03;;;;;;;9.33;6.80;;;;;;;15.15;100.00;101003.41;5093467;28;20197;-68
2021/07/10 07:01:29;;;;;;;6.70;5.53;;;;;;;15.21;100.00;101021.81;5075509;28;20232;-69
2021/07/10 07:03:54;;;;;;;10.07;7.83;;;;;;;15.15;100.00;101022.22;5075167;28;20277;-68
2021/07/10 07:06:20;;;;;;;8.00;5.40;;;;;;;15.23;100.00;101024.38;5075060;28;20626;-68
2021/07/10 07:08:46;;;;;;;10.10;6.37;;;;;;;15.24;100.00;101018.06;5075135;28;20177;-68
2021/07/10 07:11:11;;;;;;;7.80;5.50;;;;;;;15.32;100.00;100989.69;5075148;28;20677;-68
2021/07/10 07:13:37;;;;;;;8.47;6.20;;;;;;;15.36;100.00;100992.16;5058163;28;20190;-68
2021/07/10 07:16:02;;;;;;;7.13;6.43;;;;;;;15.36;100.00;101001.06;5074986;28;20580;-68
2021/07/10 07:18:28;;;;;;;6.00;5.33;;;;;;;15.44;100.00;100820.31;5093192;28;20217;-70
2021/07/10 07:20:53;;;;;;;6.67;4.53;;;;;;;15.52;100.00;100844.81;5093341;28;20174;-69
2021/07/10 07:23:18;;;;;;;7.23;4.70;;;;;;;15.62;100.00;100843.22;5074881;28;20230;-68
2021/07/10 07:25:44;;;;;;;6.60;4.60;;;;;;;15.67;100.00;100912.84;5092832;28;20642;-68
2021/07/10 07:28:09;;;;;;;5.47;4.03;;;;;;;15.59;100.00;100916.94;5074742;28;20183;-68
2021/07/10 07:30:34;;;;;;;6.87;4.90;;;;;;;15.50;100.00;100895.19;5074610;28;20227;-69
2021/07/10 07:33:00;;;;;;;5.93;4.33;;;;;;;15.53;100.00;100917.34;5074618;28;20567;-69
2021/07/10 07:35:25;;;;;;;4.00;3.70;;;;;;;15.47;100.00;100933.06;5075263;28;20174;-69
2021/07/10 07:37:51;;;;;;;7.90;4.23;;;;;;;15.49;100.00;100904.22;5075204;28;20175;-68
2021/07/10 07:40:16;;;;;;;8.37;4.13;;;;;;;15.55;100.00;100898.41;5074767;28;20182;-68
2021/07/10 07:42:43;;;;;;;8.37;4.37;;;;;;;15.55;100.00;100914.53;5074949;28;20199;-68
2021/07/10 07:45:09;;;;;;;5.47;4.50;;;;;;;15.71;100.00;100908.97;5075068;28;20178;-68
2021/07/10 07:47:35;;;;;;;5.37;4.07;;;;;;;15.83;100.00;100908.91;5092731;28;20170;-68
2021/07/10 07:50:00;;;;;;;5.73;4.40;;;;;;;15.87;100.00;100909.53;5074803;28;20178;-68
2021/07/10 07:52:26;;;;;;;5.20;3.90;;;;;;;15.86;100.00;100897.06;5075659;28;20190;-68
2021/07/10 07:54:51;;;;;;;4.67;4.23;;;;;;;15.97;100.00;100896.25;5075269;28;20284;-69
2021/07/10 07:57:17;;;;;;;4.57;4.07;;;;;;;16.02;100.00;100888.72;5093348;28;20204;-67
2021/07/10 07:59:42;;;;;;;7.50;4.10;;;;;;;16.07;100.00;100895.47;5075743;28;20183;-68
2021/07/10 08:02:08;;;;;;;6.53;3.70;;;;;;;16.05;100.00;100886.66;5078573;28;20206;-69
2021/07/10 08:04:35;;;;;;;4.83;3.70;;;;;;;15.99;100.00;100887.13;5096700;28;20177;-68
2021/07/10 08:07:00;;;;;;;5.47;3.80;;;;;;;15.86;100.00;100892.53;5062176;28;20265;-69
2021/07/10 08:09:25;;;;;;;3.70;3.40;;;;;;;15.94;100.00;100895.50;5078690;28;20583;-69
2021/07/10 08:11:51;;;;;;;4.17;3.33;;;;;;;15.93;100.00;100906.38;5096843;28;20190;-68
2021/07/10 08:14:16;;;;;;;4.23;3.50;;;;;;;15.86;100.00;100902.44;5079042;28;20185;-68
2021/07/10 08:16:41;;;;;;;3.27;2.90;;;;;;;15.92;100.00;100910.91;5045216;28;20528;-68
2021/07/10 08:19:06;;;;;;;5.07;3.23;;;;;;;15.99;100.00;100905.09;5078359;28;20600;-69
2021/07/10 08:21:33;;;;;;;3.87;2.90;;;;;;;15.97;100.00;100917.78;5063481;28;20182;-69
2021/07/10 08:23:59;;;;;;;5.37;3.23;;;;;;;15.93;100.00;100911.78;5098391;28;20297;-68
2021/07/10 08:26:25;;;;;;;3.77;2.63;;;;;;;15.78;100.00;100899.47;5080027;28;20613;-68
2021/07/10 08:28:50;;;;;;;3.97;2.83;;;;;;;15.84;100.00;100918.69;5079628;28;20174;-68
2021/07/10 08:31:16;;;;;;;3.33;3.00;;;;;;;15.85;100.00;100941.94;5097652;28;20182;-69
2021/07/10 08:33:42;;;;;;;5.30;2.40;;;;;;;15.94;100.00;100927.81;5078888;28;20206;-69
2021/07/10 08:36:08;;;;;;;9.77;2.90;;;;;;;15.97;100.00;100944.69;5078191;28;20178;-69
2021/07/10 08:38:34;;;;;;;4.03;2.60;;;;;;;15.91;100.00;100932.56;5095968;28;20259;-69
2021/07/10 08:40:59;;;;;;;3.57;2.70;;;;;;;15.92;100.00;100936.97;5095983;28;20212;-69
2021/07/10 08:43:25;;;;;;;5.33;3.20;;;;;;;15.97;100.00;100936.63;5096106;28;20226;-69
2021/07/10 08:45:50;;;;;;;5.20;3.40;;;;;;;16.11;100.00;100968.78;5081481;28;20178;-69
2021/07/10 08:48:16;;;;;;;6.13;3.43;;;;;;;16.43;100.00;100961.88;5081542;28;20592;-69
2021/07/10 08:50:42;;;;;;;4.10;3.60;;;;;;;16.64;100.00;100959.38;5081106;28;20185;-69
2021/07/10 08:53:09;;;;;;;5.67;3.90;;;;;;;16.57;100.00;100939.25;5097829;28;20197;-69
2021/07/10 08:55:36;;;;;;;6.23;4.60;;;;;;;16.61;100.00;100959.59;5080657;28;20208;-69
2021/07/10 08:58:03;;;;;;;5.23;4.73;;;;;;;16.52;100.00;100944.16;5082059;28;20167;-69
2021/07/10 09:00:32;;;;;;;6.07;4.87;;;;;;;16.64;100.00;100980.06;5081204;28;20182;-69
2021/07/10 09:02:58;;;;;;;6.33;5.13;;;;;;;16.60;100.00;100971.38;5064060;28;20194;-70
2021/07/10 09:05:24;;;;;;;6.20;5.40;;;;;;;16.45;100.00;100997.63;5081231;28;20174;-68
2021/07/10 09:08:12;;;;;;;6.43;4.93;;;;;;;16.18;100.00;100968.22;5080852;28;20175;-68
2021/07/10 09:10:38;;;;;;;8.60;6.17;;;;;;;16.07;100.00;100978.06;5080631;28;20175;-69
2021/07/10 09:13:04;;;;;;;6.10;5.07;;;;;;;16.06;100.00;100992.50;5062274;28;20666;-68
2021/07/10 09:15:30;;;;;;;7.73;5.83;;;;;;;16.02;100.00;100978.41;5079908;28;20193;-68
2021/07/10 09:17:55;;;;;;;7.27;5.80;;;;;;;16.25;100.00;100990.16;5081022;28;20209;-68
2021/07/10 09:20:25;;;;;;;8.80;6.07;;;;;;;16.56;100.00;100986.91;5099247;28;20170;-69
2021/07/10 09:22:51;;;;;;;7.67;6.00;;;;;;;17.06;100.00;100992.13;5099932;28;20190;-68
2021/07/10 09:25:32;;;;;;;5.40;4.90;;;;;;;17.24;100.00;100979.91;5078673;28;20197;-69
2021/07/10 09:27:59;;;;;;;8.30;4.70;;;;;;;17.61;96.31;101009.38;5078994;28;20166;-69
2021/07/10 09:30:35;;;;;;;7.23;4.43;;;;;;;17.62;95.81;100984.97;5080653;28;20264;-69
2021/07/10 09:33:16;;;;;;;5.13;4.63;;;;;;;17.66;95.56;100997.25;5062471;28;20212;-69
2021/07/10 09:36:00;;;;;;;5.33;4.47;;;;;;;17.65;93.23;100900.19;5097653;28;20166;-68
2021/07/10 09:38:28;;;;;;;5.87;4.40;;;;;;;17.93;90.04;101032.00;5097809;28;20174;-69
2021/07/10 09:41:07;;;;;;;6.50;4.33;;;;;;;18.00;89.28;100943.25;5098056;28;20170;-69
2021/07/10 09:43:35;;;;;;;8.87;4.67;;;;;;;17.90;89.90;101242.00;5079610;28;20250;-69
2021/07/10 09:46:02;;;;;;;9.60;4.57;;;;;;;18.06;89.46;102588.69;5079491;28;20171;-68
2021/07/10 09:48:35;;;;;;;6.37;4.40;;;;;;;18.00;87.20;100972.97;5064086;28;20196;-68
2021/07/10 09:51:20;;;;;;;6.27;4.40;;;;;;;18.03;89.31;103301.31;5062547;28;20166;-68
2021/07/10 09:53:57;;;;;;;5.03;4.53;;;;;;;18.06;87.76;100918.44;5078272;28;20738;-70
2021/07/10 09:56:22;;;;;;;6.33;4.80;;;;;;;17.79;88.33;100930.50;5062560;28;20162;-68
2021/07/10 09:58:48;;;;;;;10.73;5.60;;;;;;;18.01;88.56;100923.38;5079775;28;20182;-68
2021/07/10 10:01:34;;;;;;;5.27;4.37;;;;;;;18.16;84.25;100929.31;5075963;28;20581;-68
2021/07/10 10:04:00;;;;;;;6.20;5.07;;;;;;;18.03;85.63;100932.19;5075653;28;20198;-69
2021/07/10 10:06:32;;;;;;;5.00;4.43;;;;;;;18.17;84.47;100929.19;5093778;28;20172;-69
2021/07/10 10:08:58;;;;;;;5.70;4.33;;;;;;;18.09;84.21;100926.28;5058976;28;20182;-69
2021/07/10 10:11:24;;;;;;;6.00;4.73;;;;;;;17.92;85.77;100937.63;5076113;28;20518;-68
2021/07/10 10:13:49;;;;;;;6.80;4.23;;;;;;;17.93;85.27;100942.03;5075949;28;20186;-70
2021/07/10 10:16:15;;;;;;;5.73;4.10;;;;;;;18.04;84.38;100942.00;5078667;28;20249;-70
2021/07/10 10:18:42;;;;;;;9.60;4.93;;;;;;;18.06;85.60;100943.59;5062648;28;20177;-69
2021/07/10 10:21:08;;;;;;;3.73;3.43;;;;;;;18.18;83.88;100936.31;5077579;28;20231;-70
2021/07/10 10:23:34;;;;;;;8.23;4.40;;;;;;;18.24;83.20;100927.72;5094108;28;20593;-70
2021/07/10 10:25:59;;;;;;;5.63;4.10;;;;;;;18.48;82.38;100932.03;5059453;28;20235;-71
2021/07/10 10:28:25;;;;;;;10.40;4.00;;;;;;;18.78;81.25;100923.22;5076076;28;20186;-70
2021/07/10 10:30:55;;;;;;;5.33;4.07;;;;;;;18.96;79.75;100946.84;5076453;28;20512;-70
2021/07/10 10:33:21;;;;;;;3.37;3.07;;;;;;;19.10;78.83;100951.03;5110438;22;20593;-74
2021/07/10 10:35:47;;;;;;;7.77;3.40;;;;;;;19.17;78.87;100933.28;5097172;28;20174;-75
2021/07/10 10:38:13;;;;;;;4.43;3.50;;;;;;;19.21;78.50;100936.56;5098931;28;20182;-74
2021/07/10 10:40:39;;;;;;;4.60;3.30;;;;;;;19.43;78.44;100932.84;5097431;28;20180;-75
2021/07/10 10:43:05;;;;;;;7.50;3.53;;;;;;;19.23;76.60;100946.25;5079769;28;20569;-77
2021/07/10 10:45:39;;;;;;;4.27;3.17;;;;;;;18.94;77.73;100943.38;5096961;28;20189;-74
2021/07/10 10:48:05;;;;;;;6.87;3.90;;;;;;;18.77;78.62;100953.94;5096595;28;20173;-74
2021/07/10 10:50:38;;;;;;;6.63;3.60;;;;;;;18.82;78.34;100944.44;5114626;28;20278;-75
2021/07/10 10:53:08;;;;;;;4.43;3.30;;;;;;;18.79;79.16;100949.25;5115815;28;20185;-75
2021/07/10 10:55:36;;;;;;;6.00;3.30;;;;;;;18.93;78.20;100943.50;5114881;28;20204;-75
2021/07/10 10:58:17;;;;;;;5.80;3.37;;;;;;;19.45;75.18;100949.81;5114202;28;20177;-74
2021/07/10 11:00:49;;;;;;;4.80;3.33;;;;;;;19.95;72.36;100937.19;5115113;28;20158;-75
2021/07/10 11:03:21;;;;;;;5.70;3.20;;;;;;;20.25;71.14;100942.53;5096386;28;20233;-75
2021/07/10 11:05:47;;;;;;;6.00;3.13;;;;;;;20.43;69.50;100941.84;5115562;28;20174;-75
2021/07/10 11:08:21;;;;;;;8.67;3.07;;;;;;;20.58;68.71;100959.41;5095965;28;20173;-73
2021/07/10 11:10:52;;;;;;;4.40;3.03;;;;;;;22.13;63.33;100965.31;5114316;28;20176;-73
2021/07/10 11:13:30;;;;;;;3.93;2.53;;;;;;;23.16;58.48;100940.25;5095941;28;20204;-74